createdAt,value
2019-05-13T00:00:25.752Z,7.83
2019-05-13T00:02:55.558Z,9.35
2019-05-13T00:05:25.261Z,6.15
2019-05-13T00:07:55.066Z,10.00
2019-05-13T00:10:24.840Z,6.97
2019-05-13T00:12:55.781Z,9.70
2019-05-13T00:15:25.568Z,7.00
2019-05-13T00:17:56.713Z,9.53
2019-05-13T00:20:26.519Z,9.23
2019-05-13T00:22:57.831Z,11.12
2019-05-13T00:25:27.465Z,7.12
2019-05-13T00:27:57.129Z,12.55
2019-05-13T00:30:26.875Z,9.20
2019-05-13T00:32:56.611Z,13.53
2019-05-13T00:35:26.546Z,12.13
2019-05-13T00:37:56.212Z,13.45
2019-05-13T00:40:26.769Z,8.03
2019-05-13T00:42:56.647Z,11.00
2019-05-13T00:45:26.574Z,8.78
2019-05-13T00:47:56.531Z,8.20
2019-05-13T00:50:26.312Z,10.20
2019-05-13T00:52:57.130Z,11.80
2019-05-13T00:55:26.846Z,10.43
2019-05-13T00:57:56.638Z,8.58
2019-05-13T01:00:26.506Z,13.50
2019-05-13T01:02:57.210Z,11.22
2019-05-13T01:05:27.055Z,10.45
2019-05-13T01:07:56.826Z,11.22
2019-05-13T01:10:26.620Z,11.75
2019-05-13T01:13:06.840Z,10.65
2019-05-13T01:15:36.569Z,9.63
2019-05-13T01:18:06.300Z,12.05
2019-05-13T01:20:36.081Z,15.20
2019-05-13T01:23:06.802Z,10.63
2019-05-13T01:25:36.774Z,12.10
2019-05-13T01:28:06.601Z,9.08
2019-05-13T01:30:36.379Z,16.50
2019-05-13T01:33:07.022Z,13.72
2019-05-13T01:35:36.742Z,12.60
2019-05-13T01:38:06.536Z,10.10
2019-05-13T01:40:36.430Z,10.45
2019-05-13T01:43:06.194Z,11.15
2019-05-13T01:45:35.915Z,15.35
2019-05-13T01:48:07.754Z,13.22
2019-05-13T01:50:37.285Z,8.65
2019-05-13T01:53:07.520Z,10.38
2019-05-13T01:55:37.249Z,12.15
2019-05-13T01:58:07.061Z,9.35
2019-05-13T02:00:38.481Z,11.50
2019-05-13T02:03:08.275Z,15.70
2019-05-13T02:05:37.989Z,16.20
2019-05-13T02:08:08.703Z,17.05
2019-05-13T02:10:54.388Z,15.13
2019-05-13T02:13:24.831Z,15.68
2019-05-13T02:15:56.129Z,15.53
2019-05-13T02:18:25.913Z,14.40
2019-05-13T02:20:56.188Z,16.77
2019-05-13T02:23:26.982Z,11.63
2019-05-13T02:25:56.790Z,15.90
2019-05-13T02:28:26.504Z,14.20
2019-05-13T02:30:57.089Z,16.20
2019-05-13T02:33:27.013Z,13.18
2019-05-13T02:35:56.873Z,10.72
2019-05-13T02:38:30.735Z,13.75
2019-05-13T02:40:58.024Z,18.57
2019-05-13T02:43:27.745Z,19.92
2019-05-13T02:46:03.731Z,16.10
2019-05-13T02:48:33.159Z,13.98
2019-05-13T02:51:05.461Z,18.25
2019-05-13T02:53:35.366Z,15.35
2019-05-13T02:56:08.405Z,12.30
2019-05-13T02:58:42.772Z,17.70
2019-05-13T03:01:13.834Z,14.03
2019-05-13T03:03:44.550Z,14.47
2019-05-13T03:06:14.527Z,14.00
2019-05-13T03:08:49.596Z,23.80
2019-05-13T03:11:16.611Z,15.23
2019-05-13T03:13:52.578Z,18.70
2019-05-13T03:16:25.157Z,16.85
2019-05-13T03:18:56.740Z,12.13
2019-05-13T03:21:27.362Z,20.77
2019-05-13T03:23:57.267Z,21.12
2019-05-13T03:26:27.140Z,14.80
2019-05-13T03:28:57.017Z,18.20
2019-05-13T03:31:27.222Z,14.45
2019-05-13T03:33:57.069Z,16.35
2019-05-13T03:36:27.259Z,14.65
2019-05-13T03:39:05.742Z,20.40
2019-05-13T03:41:32.944Z,18.65
2019-05-13T03:44:08.378Z,18.55
2019-05-13T03:46:42.560Z,18.48
2019-05-13T03:49:14.179Z,17.10
2019-05-13T03:51:44.157Z,16.30
2019-05-13T03:54:14.535Z,22.87
2019-05-13T03:56:44.250Z,16.82
2019-05-13T03:59:14.120Z,20.25
2019-05-13T04:01:44.375Z,19.57
2019-05-13T04:04:15.074Z,17.02
2019-05-13T04:06:44.935Z,21.27
2019-05-13T04:09:26.216Z,18.30
2019-05-13T04:11:46.393Z,20.37
2019-05-13T04:18:03.131Z,16.25
2019-05-13T04:20:33.832Z,19.37
2019-05-13T04:23:04.964Z,17.85
2019-05-13T04:25:39.379Z,18.85
2019-05-13T04:28:06.725Z,18.42
2019-05-13T04:30:36.493Z,23.27
2019-05-13T04:33:12.959Z,19.98
2019-05-13T04:35:42.699Z,16.45
2019-05-13T04:38:13.314Z,17.55
2019-05-13T04:40:44.080Z,21.48
2019-05-13T04:43:14.984Z,20.37
2019-05-13T04:45:44.849Z,25.48
2019-05-13T04:48:15.961Z,21.45
2019-05-13T04:50:45.744Z,21.87
2019-05-13T04:53:16.619Z,22.65
2019-05-13T04:55:46.560Z,19.77
2019-05-13T04:58:16.499Z,19.02
2019-05-13T05:01:02.118Z,18.40
2019-05-13T05:03:44.762Z,22.05
2019-05-13T05:06:33.398Z,17.75
2019-05-13T05:09:07.738Z,19.15
2019-05-13T05:12:24.039Z,20.10
2019-05-13T05:15:03.902Z,19.12
2019-05-13T05:17:53.089Z,21.37
2019-05-13T05:20:36.237Z,19.10
2019-05-13T05:23:54.596Z,20.88
2019-05-13T05:27:04.583Z,24.50
2019-05-13T05:30:23.978Z,21.62
2019-05-13T05:33:12.729Z,19.52
2019-05-13T05:36:24.535Z,18.75
2019-05-13T05:39:12.362Z,26.33
2019-05-13T05:41:45.585Z,15.83
2019-05-13T05:44:17.779Z,18.77
2019-05-13T05:46:51.538Z,18.67
2019-05-13T05:49:23.756Z,18.48
2019-05-13T05:51:57.918Z,12.90
2019-05-13T05:54:31.759Z,17.12
2019-05-13T05:57:06.578Z,24.23
2019-05-13T05:59:37.902Z,15.55
2019-05-13T06:02:11.903Z,17.65
2019-05-13T06:04:43.099Z,16.45
2019-05-13T06:07:14.881Z,15.68
2019-05-13T06:09:44.667Z,14.43
2019-05-13T06:12:14.703Z,17.20
2019-05-13T06:14:45.216Z,18.40
2019-05-13T06:17:15.080Z,13.35
2019-05-13T06:19:45.295Z,16.42
2019-05-13T06:22:15.113Z,10.68
2019-05-13T06:24:45.847Z,11.08
2019-05-13T06:27:16.165Z,13.98
2019-05-13T06:29:49.255Z,8.88
2019-05-13T06:32:25.420Z,14.60
2019-05-13T06:34:52.598Z,15.78
2019-05-13T06:37:23.009Z,12.93
2019-05-13T06:39:52.755Z,16.10
2019-05-13T06:42:22.405Z,12.43
2019-05-13T06:44:52.178Z,15.05
2019-05-13T06:47:22.114Z,12.18
2019-05-13T06:49:51.933Z,10.05
2019-05-13T06:52:21.695Z,10.80
2019-05-13T06:54:52.140Z,12.23
2019-05-13T06:57:22.154Z,10.88
2019-05-13T06:59:52.559Z,9.55
2019-05-13T07:02:23.878Z,12.07
2019-05-13T07:04:53.605Z,15.83
2019-05-13T07:07:23.466Z,10.85
2019-05-13T07:09:53.021Z,8.20
2019-05-13T07:12:22.675Z,9.63
2019-05-13T07:14:52.395Z,11.33
2019-05-13T07:17:22.486Z,13.58
2019-05-13T07:19:52.302Z,20.50
2019-05-13T07:22:22.934Z,14.58
2019-05-13T07:24:53.950Z,11.80
2019-05-13T07:27:24.193Z,17.42
2019-05-13T07:29:55.694Z,14.15
2019-05-13T07:32:25.332Z,9.73
2019-05-13T07:34:55.050Z,10.05
2019-05-13T07:37:25.641Z,11.08
2019-05-13T07:39:55.735Z,11.20
2019-05-13T07:42:25.444Z,10.90
2019-05-13T07:44:55.213Z,11.90
2019-05-13T07:47:24.945Z,9.98
2019-05-13T07:49:54.683Z,12.15
2019-05-13T07:52:24.447Z,11.63
2019-05-13T07:54:54.053Z,12.75
2019-05-13T07:57:23.688Z,9.20
2019-05-13T07:59:53.439Z,13.93
2019-05-13T08:02:23.687Z,9.55
2019-05-13T08:04:53.392Z,9.55
2019-05-13T08:07:23.015Z,10.80
2019-05-13T08:09:55.652Z,5.50
2019-05-13T08:12:24.065Z,10.55
2019-05-13T08:14:53.792Z,8.60
2019-05-13T08:17:23.696Z,9.73
2019-05-13T08:19:53.411Z,11.10
2019-05-13T08:22:23.143Z,10.78
2019-05-13T08:24:54.378Z,6.65
2019-05-13T08:27:30.265Z,11.12
2019-05-13T08:29:55.918Z,11.85
2019-05-13T08:32:25.636Z,8.80
2019-05-13T08:35:01.746Z,10.03
2019-05-13T08:37:27.706Z,6.65
2019-05-13T08:39:57.424Z,8.13
2019-05-13T08:42:27.169Z,7.40
2019-05-13T08:44:56.963Z,7.25
2019-05-13T08:47:26.735Z,6.12
2019-05-13T08:50:03.819Z,10.00
2019-05-13T08:52:37.099Z,9.23
2019-05-13T08:55:08.211Z,8.60
2019-05-13T08:57:37.940Z,4.15
2019-05-13T09:00:18.506Z,6.35
2019-05-13T09:05:37.028Z,5.60
2019-05-13T09:08:07.179Z,8.73
2019-05-13T09:10:36.914Z,9.15
2019-05-13T09:13:07.739Z,6.90
2019-05-13T09:15:37.569Z,7.80
2019-05-13T09:18:11.941Z,6.85
2019-05-13T09:20:41.771Z,6.87
2019-05-13T09:23:11.559Z,6.97
2019-05-13T09:25:44.255Z,7.62
2019-05-13T09:28:14.019Z,5.15
2019-05-13T09:30:43.828Z,5.42
2019-05-13T09:33:13.622Z,2.60
2019-05-13T09:35:58.060Z,5.83
2019-05-13T09:38:26.521Z,5.05
2019-05-13T09:40:56.382Z,5.25
2019-05-13T09:43:27.785Z,6.37
2019-05-13T09:45:57.509Z,4.85
2019-05-13T09:48:27.217Z,5.12
2019-05-13T09:50:57.805Z,5.25
2019-05-13T09:53:41.672Z,5.60
2019-05-13T09:56:33.075Z,5.90
2019-05-13T09:59:08.088Z,6.17
2019-05-13T10:01:43.109Z,5.65
2019-05-13T10:04:12.946Z,9.23
2019-05-13T10:06:43.389Z,6.42
2019-05-13T10:09:13.263Z,5.80
2019-05-13T10:11:43.167Z,8.25
2019-05-13T10:14:13.017Z,5.03
2019-05-13T10:16:51.826Z,5.37
2019-05-13T10:19:24.707Z,5.90
2019-05-13T10:21:54.641Z,8.05
2019-05-13T10:24:25.184Z,6.97
2019-05-13T10:26:55.450Z,5.60
2019-05-13T10:29:31.076Z,10.63
2019-05-13T10:32:02.603Z,8.53
2019-05-13T10:34:32.585Z,7.67
2019-05-13T10:39:56.061Z,4.53
2019-05-13T10:42:27.279Z,5.70
2019-05-13T10:45:02.446Z,3.92
2019-05-13T10:47:33.369Z,4.45
2019-05-13T10:50:03.407Z,7.92
2019-05-13T10:52:34.500Z,6.22
2019-05-13T10:55:06.281Z,4.60
2019-05-13T10:57:36.254Z,6.50
2019-05-13T11:00:08.829Z,6.33
2019-05-13T11:02:38.750Z,4.53
2019-05-13T11:05:08.873Z,7.45
2019-05-13T11:07:41.625Z,5.60
2019-05-13T11:10:13.406Z,6.53
2019-05-13T11:12:43.566Z,4.25
2019-05-13T11:15:15.115Z,3.70
2019-05-13T11:17:46.332Z,4.15
2019-05-13T11:20:16.109Z,5.00
2019-05-13T11:22:45.950Z,3.98
2019-05-13T11:25:21.816Z,3.77
2019-05-13T11:28:22.221Z,4.15
2019-05-13T11:31:02.892Z,5.95
2019-05-13T11:36:46.330Z,4.97
2019-05-13T11:39:32.544Z,4.33
2019-05-13T11:44:56.091Z,6.78
2019-05-13T11:47:25.877Z,3.83
2019-05-13T11:49:55.682Z,5.05
2019-05-13T11:52:25.497Z,5.35
2019-05-13T11:54:56.789Z,4.62
2019-05-13T11:57:26.589Z,4.95
2019-05-13T11:59:56.486Z,5.30
2019-05-13T12:02:26.479Z,7.15
2019-05-13T12:04:56.786Z,5.20
2019-05-13T12:07:26.667Z,4.03
2019-05-13T12:09:58.182Z,3.90
2019-05-13T12:12:36.513Z,4.58
2019-05-13T12:15:28.827Z,4.90
2019-05-13T12:17:45.850Z,5.92
2019-05-13T12:23:23.382Z,4.00
2019-05-13T12:25:53.367Z,3.83
2019-05-13T12:31:36.087Z,4.40
2019-05-13T12:34:05.965Z,4.90
2019-05-13T12:36:36.135Z,5.80
2019-05-13T12:39:14.266Z,6.92
2019-05-13T12:41:44.658Z,4.85
2019-05-13T12:44:14.444Z,5.25
2019-05-13T12:49:50.390Z,5.47
2019-05-13T12:52:22.935Z,8.13
2019-05-13T12:54:52.873Z,5.87
2019-05-13T12:57:23.334Z,9.48
2019-05-13T12:59:53.164Z,9.35
2019-05-13T13:02:22.858Z,6.55
2019-05-13T13:05:12.096Z,6.85
2019-05-13T13:07:24.099Z,4.28
2019-05-13T13:09:54.153Z,6.03
2019-05-13T13:12:33.797Z,7.60
2019-05-13T13:14:55.271Z,7.30
2019-05-13T13:17:25.053Z,5.22
2019-05-13T13:20:03.794Z,5.70
2019-05-13T13:22:26.222Z,4.15
2019-05-13T13:24:57.583Z,8.00
2019-05-13T13:27:57.839Z,5.87
2019-05-13T13:30:03.096Z,8.28
2019-05-13T13:32:33.039Z,5.15
2019-05-13T13:35:03.681Z,4.90
2019-05-13T13:37:35.119Z,6.60
2019-05-13T13:40:06.592Z,6.03
2019-05-13T13:42:36.237Z,4.55
2019-05-13T13:45:07.723Z,4.65
2019-05-13T13:47:37.438Z,5.58
2019-05-13T13:50:08.356Z,4.78
2019-05-13T13:52:44.978Z,5.72
2019-05-13T13:55:15.971Z,5.42
2019-05-13T13:57:45.762Z,5.17
2019-05-13T14:00:47.436Z,6.45
2019-05-13T14:06:12.353Z,5.37
2019-05-13T14:08:41.595Z,7.12
2019-05-13T14:11:15.204Z,4.80
2019-05-13T14:13:44.980Z,7.10
2019-05-13T14:16:28.640Z,6.03
2019-05-13T14:18:46.304Z,4.60
2019-05-13T14:21:16.046Z,6.22
2019-05-13T14:23:45.702Z,6.35
2019-05-13T14:26:15.662Z,5.00
2019-05-13T14:28:47.289Z,9.15
2019-05-13T14:31:18.473Z,5.90
2019-05-13T14:33:51.950Z,5.78
2019-05-13T14:36:23.113Z,5.22
2019-05-13T14:38:53.141Z,7.17
2019-05-13T14:41:22.864Z,4.97
2019-05-13T14:43:53.403Z,7.05
2019-05-13T14:46:30.554Z,4.45
2019-05-13T14:48:54.809Z,5.40
2019-05-13T14:51:24.491Z,6.53
2019-05-13T14:53:54.404Z,3.77
2019-05-13T14:56:24.180Z,5.53
2019-05-13T14:58:53.923Z,3.15
2019-05-13T15:01:23.580Z,5.10
2019-05-13T15:03:53.464Z,4.03
2019-05-13T15:06:23.301Z,5.60
2019-05-13T15:08:53.167Z,5.95
2019-05-13T15:11:23.447Z,5.80
2019-05-13T15:13:53.336Z,4.20
2019-05-13T15:16:23.224Z,4.83
2019-05-13T15:19:01.592Z,4.47
2019-05-13T15:21:32.211Z,4.70
2019-05-13T15:24:12.389Z,5.25
2019-05-13T15:26:46.039Z,6.20
2019-05-13T15:29:41.820Z,4.42
2019-05-13T15:32:11.592Z,4.12
2019-05-13T15:34:42.543Z,6.05
2019-05-13T15:37:12.328Z,5.75
2019-05-13T15:39:45.823Z,4.28
2019-05-13T15:42:15.559Z,5.12
2019-05-13T15:44:45.333Z,6.08
2019-05-13T15:47:24.088Z,5.50
2019-05-13T15:49:48.883Z,3.77
2019-05-13T15:52:22.554Z,5.35
2019-05-13T15:54:52.200Z,6.72
2019-05-13T15:57:25.186Z,4.40
2019-05-13T16:00:02.056Z,7.95
2019-05-13T16:02:41.839Z,7.20
2019-05-13T16:05:13.469Z,7.37
2019-05-13T16:35:55.231Z,5.50
2019-05-13T16:38:46.248Z,5.17
2019-05-13T16:41:17.422Z,10.30
2019-05-13T16:44:35.728Z,6.90
2019-05-13T16:47:06.419Z,6.35
2019-05-13T16:49:36.297Z,8.10
2019-05-13T16:52:06.132Z,5.37
2019-05-13T16:54:36.882Z,6.85
2019-05-13T16:57:06.692Z,6.20
2019-05-13T16:59:42.008Z,5.97
2019-05-13T17:02:13.183Z,7.22
2019-05-13T17:04:44.558Z,7.15
2019-05-13T17:07:15.415Z,6.95
2019-05-13T17:09:45.255Z,6.22
2019-05-13T17:12:17.959Z,7.40
2019-05-13T17:14:57.161Z,4.87
2019-05-13T17:17:26.990Z,5.58
2019-05-13T17:19:58.655Z,6.35
2019-05-13T17:22:36.313Z,6.37
2019-05-13T17:25:07.879Z,6.62
2019-05-13T17:27:37.692Z,5.47
2019-05-13T17:30:12.469Z,7.83
2019-05-13T17:32:42.365Z,7.05
2019-05-13T17:35:12.474Z,6.65
2019-05-13T17:37:42.346Z,7.10
2019-05-13T17:40:12.346Z,4.37
2019-05-13T17:42:43.236Z,6.22
2019-05-13T17:45:13.499Z,4.92
2019-05-13T17:47:43.206Z,3.80
2019-05-13T17:50:14.964Z,7.62
2019-05-13T17:52:45.897Z,4.33
2019-05-13T17:55:17.277Z,5.92
2019-05-13T17:57:47.106Z,5.37
2019-05-13T18:00:17.092Z,5.20
2019-05-13T18:02:46.902Z,4.78
2019-05-13T18:05:17.008Z,5.37
2019-05-13T18:07:46.737Z,4.70
2019-05-13T18:10:16.747Z,5.75
2019-05-13T18:12:46.556Z,6.50
2019-05-13T18:15:16.493Z,5.33
2019-05-13T18:17:46.239Z,6.47
2019-05-13T18:20:17.582Z,6.10
2019-05-13T18:22:47.379Z,6.50
2019-05-13T18:25:17.243Z,5.97
2019-05-13T18:27:47.012Z,7.80
2019-05-13T18:30:18.349Z,8.03
2019-05-13T18:32:48.182Z,5.85
2019-05-13T18:35:18.680Z,9.48
2019-05-13T18:37:48.527Z,5.25
2019-05-13T18:40:18.590Z,6.70
2019-05-13T18:42:48.323Z,5.92
2019-05-13T18:45:18.275Z,6.75
2019-05-13T18:47:48.192Z,5.25
2019-05-13T18:50:18.224Z,4.80
2019-05-13T18:52:48.050Z,5.22
2019-05-13T18:55:17.856Z,7.17
2019-05-13T18:57:47.608Z,5.60
2019-05-13T19:00:17.693Z,8.43
2019-05-13T19:02:47.698Z,6.15
2019-05-13T19:05:17.551Z,6.60
2019-05-13T19:07:47.354Z,5.90
2019-05-13T19:10:17.180Z,6.28
2019-05-13T19:12:46.981Z,5.35
2019-05-13T19:15:16.927Z,7.80
2019-05-13T19:17:46.658Z,4.85
2019-05-13T19:20:37.262Z,5.92
2019-05-13T19:25:55.745Z,6.70
2019-05-13T19:28:25.834Z,6.67
2019-05-13T19:30:56.859Z,3.87
2019-05-13T19:33:30.116Z,9.40
2019-05-13T19:36:03.296Z,4.50
2019-05-13T19:38:33.303Z,6.17
2019-05-13T19:41:03.157Z,5.20
2019-05-13T19:43:33.039Z,7.22
2019-05-13T19:46:03.001Z,6.67
2019-05-13T19:48:32.995Z,5.08
2019-05-13T19:51:02.973Z,8.95
2019-05-13T19:53:33.762Z,6.12
2019-05-13T19:56:03.666Z,7.65
2019-05-13T19:58:33.588Z,5.08
2019-05-13T20:01:03.557Z,7.53
2019-05-13T20:03:34.239Z,6.12
2019-05-13T20:06:04.763Z,6.15
2019-05-13T20:08:34.638Z,5.87
2019-05-13T20:11:07.673Z,4.72
2019-05-13T20:27:35.627Z,5.75
2019-05-13T20:30:11.770Z,8.90
2019-05-13T20:32:41.657Z,5.65
2019-05-13T21:10:59.415Z,5.72
2019-05-13T21:13:32.825Z,5.45
2019-05-13T21:16:11.246Z,6.97
2019-05-13T21:19:03.702Z,7.62
2019-05-13T21:27:45.310Z,5.22
2019-05-13T21:36:06.182Z,5.92
2019-05-13T21:46:48.683Z,5.55
2019-05-13T21:58:22.421Z,7.35
2019-05-13T22:01:35.024Z,7.22
2019-05-13T22:04:09.353Z,5.10
2019-05-13T22:07:09.287Z,6.20
2019-05-13T22:12:41.272Z,5.35
2019-05-13T22:15:10.950Z,7.00
2019-05-13T22:18:41.734Z,5.53
2019-05-13T22:24:51.123Z,8.08
